Weather at Ciampino–G. B. Pastine International Airport

Public forecast

Using degrees Celsius for public forecast. Weather courtesy of forecast.io.

Current aviation weather report (METAR) for Ciampino–G. B. Pastine International Airport

Retrieved 2020/09/26 17:20 UTC (0 seconds ago):

LIRA 261720Z 18005KT 9999 SCT040 15/08 Q1002

Aviation forecast (TAF) for Ciampino–G. B. Pastine International Airport

Retrieved 2020/09/26 12:00 UTC (5 hours ago):

TAF LIRA 261100Z 2612/2712 32007KT 9999 SCT025 TEMPO 2620/2708 SHRA